Mayfield, United Kingdom
Current Conditions -  °F | °C
As of 11:20 AM on Tuesday 21 Oct 2014 (Local Time) from EGKK Reporting Station
Few Clouds Few Clouds  
Wind Chill: 55°   Ceiling: Unl
Heat Index: 55°   Visibility: 6mi
Dew Point: 41°   Wind: 28mph
Humidity: 58%   Direction: 290°WNW
Pressure: 29.68"   Gusts: 41mph
Location:  51.02°N, 0.26°E
Report Text: EGKK 211020Z 29024G36KT 9999 FEW046 13/05 Q1005
Loading
Personal Weather Stations






























Interactive Weather Map
Tropical Storm Tracking
New forecast layout! Learn more

10-Day Weather Forecast

Advertisements
Track Severe Weather on mobile